Aeroporto :
LOGIN :

Iscrizione | Disclaimer

   EN    FR    IT 

 










Sommario :    VFR   VFR Marginale   IFR   IFR Intensivo   IFR Molto Intensivo
Visibilità : 
Base nubi : 
>= 8 km
>= 3000ft
5 / 8 km
1000 / 3000 ft
1500m / 5 km
500 / 1000 ft
800 / 1500m
200 / 500 ft
< 800m
< 200 ft
Simboli :   Temporali  Nebbia  Neve Forte  Precipitazioni Forti  Vento > 20 kt
SIGMETs :   Varie  Temporali  Ghiacco  Turbolenza  Onda orograficha  Ceneri Vulcaniche






- Altitudine del aeroporto : 1568 ft


ETSB - Büchel AB

ULTIMO METAR :
  • 290320Z 23011KT 9999 BKN006 12/11 Q1014 YLO

METARs OBSOLETI :
  • 290300Z 22010KT 9999 -RA BKN006 12/11 Q1014 YLO
  • 290220Z AUTO 22010KT //// // ////// 12/11 Q1014 ///
  • 290120Z AUTO 23011KT //// // ////// 12/11 Q1015 ///
  • 290020Z AUTO 22010KT //// // ////// 12/11 Q1015 ///
  • 282320Z AUTO 22011KT //// // ////// 12/11 Q1016 ///

Previsioni scadute.



MetMap, La meteo Aeronautica in un colpo d'occhio ! - Copyright ORBIFLY Dicembre 2007 - Disclaimer

ORBIFLY MET'MAP TEAM :

Programmazione e sviluppo : Alexandra Zaïnal
Concezione : Baudouin d'Aumeries
Supporto tecnico e logistico : Manuel Goepfert
Aiuto : Marc-Olivier Méhu
Aiuto per la traduzione : Arnaldo La Scala




FONTI E CREDITI :

   NOAA